Time;durP1;ratioP1;P1;durP2;ratioP2;P2;SDS_P1;SDS_P2;PMS_P1;PMS_P2;Temp;Humidity;BMP_temperature;BMP_pressure;BME280_temperature;BME280_humidity;BME280_pressure;Samples;Min_cycle;Max_cycle;Signal;HPM_P1;HPM_P2
2023/07/04 00:01:48;;;;;;;3.47;1.67;;;;;;;16.43;100.00;100372.47;5035850;28;20061;-51
2023/07/04 00:04:18;;;;;;;11.10;1.00;;;;;;;16.57;100.00;100373.91;5038932;28;20969;-47
2023/07/04 00:06:47;;;;;;;1.83;0.57;;;;;;;16.52;100.00;100384.47;5034333;28;20064;-47
2023/07/04 00:09:12;;;;;;;4.75;0.68;;;;;;;16.33;100.00;100378.41;5035267;28;20742;-47
2023/07/04 00:11:37;;;;;;;9.00;1.10;;;;;;;16.39;100.00;100382.00;5041450;28;20452;-54
2023/07/04 00:14:03;;;;;;;3.60;1.27;;;;;;;16.50;100.00;100375.06;5042531;28;20033;-50
2023/07/04 00:16:28;;;;;;;5.05;0.20;;;;;;;16.57;100.00;100378.41;5037257;28;20029;-51
2023/07/04 00:18:54;;;;;;;1.95;0.95;;;;;;;16.55;100.00;100381.34;5043645;28;20107;-48
2023/07/04 00:21:19;;;;;;;6.43;0.50;;;;;;;16.48;100.00;100385.16;5033997;28;20037;-49
2023/07/04 00:23:47;;;;;;;2.80;0.50;;;;;;;16.47;100.00;100375.50;5037169;28;20112;-53
2023/07/04 00:26:16;;;;;;;2.00;0.45;;;;;;;16.50;100.00;100377.72;5029430;28;20364;-49
2023/07/04 00:28:42;;;;;;;10.80;0.60;;;;;;;16.52;100.00;100378.28;5046958;28;20032;-49
2023/07/04 00:31:09;;;;;;;8.88;0.35;;;;;;;16.48;100.00;100379.81;5036849;28;20813;-49
2023/07/04 00:33:34;;;;;;;7.85;0.88;;;;;;;16.54;100.00;100386.91;5032657;28;20421;-52
2023/07/04 00:36:06;;;;;;;10.45;1.48;;;;;;;16.57;100.00;100387.28;5037940;28;20029;-49
2023/07/04 00:38:33;;;;;;;6.32;0.30;;;;;;;16.51;100.00;100379.34;5034009;28;20086;-47
2023/07/04 00:41:04;;;;;;;3.20;0.55;;;;;;;16.49;100.00;100373.41;5033603;28;20413;-50
2023/07/04 00:44:11;;;;;;;5.22;0.63;;;;;;;16.42;100.00;100375.38;5037008;28;20490;-50
2023/07/04 00:46:52;;;;;;;2.92;0.57;;;;;;;16.39;100.00;100375.84;5028526;28;20032;-49
2023/07/04 00:49:26;;;;;;;3.45;0.32;;;;;;;16.36;100.00;100377.13;5038814;28;20030;-50
2023/07/04 00:52:08;;;;;;;1.42;0.38;;;;;;;16.30;100.00;100378.06;5036304;28;20025;-51
2023/07/04 00:54:58;;;;;;;4.75;0.73;;;;;;;16.42;100.00;100380.72;5035179;28;20028;-48
2023/07/04 00:57:27;;;;;;;4.47;0.40;;;;;;;16.43;100.00;100375.16;5023560;28;20058;-49
2023/07/04 00:59:58;;;;;;;8.55;0.25;;;;;;;16.44;100.00;100368.75;5032212;28;20041;-48
2023/07/04 01:02:26;;;;;;;7.38;0.60;;;;;;;16.32;100.00;100370.63;5032001;28;20075;-48
2023/07/04 01:04:53;;;;;;;4.80;0.40;;;;;;;16.34;100.00;100369.34;5038032;28;20481;-50
2023/07/04 01:07:39;;;;;;;2.95;0.32;;;;;;;16.25;100.00;100365.38;5037342;28;20040;-48
2023/07/04 01:10:07;;;;;;;5.25;0.73;;;;;;;16.24;100.00;100361.09;5028720;28;20473;-50
2023/07/04 01:12:33;;;;;;;4.80;0.80;;;;;;;16.29;100.00;100379.13;5034991;28;20039;-47
2023/07/04 01:15:02;;;;;;;2.38;0.95;;;;;;;16.29;100.00;100369.22;5032792;28;20033;-52
2023/07/04 01:17:29;;;;;;;13.02;1.90;;;;;;;16.22;100.00;100371.19;5047029;28;20025;-51
2023/07/04 01:19:55;;;;;;;5.05;0.90;;;;;;;16.15;100.00;100373.16;5034606;28;20486;-49
2023/07/04 01:22:20;;;;;;;2.15;0.70;;;;;;;16.16;100.00;100365.94;5032848;28;20078;-49
2023/07/04 01:25:11;;;;;;;4.20;0.40;;;;;;;16.18;100.00;100380.72;5026690;28;20037;-47
2023/07/04 01:27:37;;;;;;;4.10;1.27;;;;;;;16.21;100.00;100374.91;5034841;28;20026;-48
2023/07/04 01:30:05;;;;;;;4.95;0.57;;;;;;;16.18;100.00;100378.03;5041191;28;20028;-52
2023/07/04 01:32:34;;;;;;;6.70;0.40;;;;;;;16.10;100.00;100379.19;5030203;28;20113;-50
2023/07/04 01:35:00;;;;;;;2.78;0.38;;;;;;;16.07;100.00;100379.66;5031026;28;20063;-49
2023/07/04 01:37:30;;;;;;;8.88;0.88;;;;;;;16.05;100.00;100381.72;5037567;28;20412;-49
2023/07/04 01:39:59;;;;;;;2.78;0.45;;;;;;;16.01;100.00;100382.44;5036083;28;20029;-48
2023/07/04 01:42:31;;;;;;;0.25;0.15;;;;;;;15.99;100.00;100379.19;5043812;28;20499;-47
2023/07/04 01:44:58;;;;;;;6.13;1.73;;;;;;;15.99;100.00;100376.50;5038645;28;20025;-51
2023/07/04 01:47:23;;;;;;;2.28;0.43;;;;;;;15.98;100.00;100377.53;5026711;28;20755;-49
2023/07/04 01:49:49;;;;;;;1.77;0.30;;;;;;;16.00;100.00;100383.47;5032131;28;20041;-50
2023/07/04 01:52:14;;;;;;;4.20;0.40;;;;;;;16.03;100.00;100373.16;5030051;28;20104;-52
2023/07/04 01:54:39;;;;;;;2.42;0.10;;;;;;;15.98;100.00;100380.19;5038292;28;20478;-47
2023/07/04 01:57:10;;;;;;;3.03;0.52;;;;;;;16.07;100.00;100386.88;5035731;28;20113;-47
2023/07/04 01:59:35;;;;;;;3.22;0.17;;;;;;;16.12;100.00;100377.09;5034380;28;20549;-51
2023/07/04 02:02:01;;;;;;;3.38;0.22;;;;;;;16.09;100.00;100379.44;5040622;28;20053;-46
2023/07/04 02:04:26;;;;;;;1.75;0.52;;;;;;;16.13;100.00;100373.41;5035101;28;20021;-49
2023/07/04 02:06:52;;;;;;;2.08;0.28;;;;;;;16.14;100.00;100379.56;5037157;28;20071;-51
2023/07/04 02:09:17;;;;;;;2.17;0.20;;;;;;;16.13;100.00;100378.75;5040560;28;20029;-48
2023/07/04 02:11:42;;;;;;;2.30;0.22;;;;;;;16.08;100.00;100367.09;5032899;28;20067;-49
2023/07/04 02:14:08;;;;;;;5.47;0.73;;;;;;;16.02;100.00;100366.16;5030969;28;20033;-49
2023/07/04 02:16:33;;;;;;;6.78;1.10;;;;;;;15.96;100.00;100372.44;5038365;28;20028;-49
2023/07/04 02:18:58;;;;;;;8.43;0.73;;;;;;;16.04;100.00;100365.94;5031980;28;20032;-51
2023/07/04 02:21:26;;;;;;;5.68;0.30;;;;;;;16.00;100.00;100356.72;5031914;28;20569;-50
2023/07/04 02:23:51;;;;;;;5.88;1.10;;;;;;;15.96;100.00;100358.25;5037628;28;20063;-49
2023/07/04 02:26:17;;;;;;;4.05;0.38;;;;;;;15.90;100.00;100355.44;5034945;28;20037;-49
2023/07/04 02:28:42;;;;;;;4.47;0.95;;;;;;;15.88;100.00;100349.50;5028719;28;20029;-52
2023/07/04 02:31:08;;;;;;;3.13;0.50;;;;;;;15.80;100.00;100352.50;5023734;28;20033;-50
2023/07/04 02:33:35;;;;;;;7.68;1.88;;;;;;;15.80;100.00;100355.19;5032808;28;20543;-49
2023/07/04 02:36:00;;;;;;;1.13;0.30;;;;;;;15.70;100.00;100354.91;5043027;28;20051;-48
2023/07/04 02:38:27;;;;;;;3.53;0.60;;;;;;;15.72;100.00;100362.69;5030164;28;20029;-46
2023/07/04 02:40:52;;;;;;;10.30;0.30;;;;;;;15.70;100.00;100352.25;5026613;28;20268;-48
2023/07/04 02:43:18;;;;;;;7.13;1.25;;;;;;;15.70;100.00;100360.25;5027580;28;20037;-49
2023/07/04 02:45:44;;;;;;;2.92;0.98;;;;;;;15.73;100.00;100359.81;5034262;28;20556;-49
2023/07/04 02:48:10;;;;;;;1.90;0.50;;;;;;;15.74;100.00;100358.75;5038908;28;20403;-46
2023/07/04 02:50:35;;;;;;;4.88;0.60;;;;;;;15.70;100.00;100355.72;5033156;28;20039;-49
2023/07/04 02:53:01;;;;;;;3.83;0.82;;;;;;;15.68;100.00;100356.97;5035266;28;20033;-50
2023/07/04 02:55:27;;;;;;;8.07;1.73;;;;;;;15.70;100.00;100357.59;5038559;28;20036;-46
2023/07/04 02:57:52;;;;;;;5.47;0.50;;;;;;;15.70;100.00;100354.91;5041410;28;20041;-50
2023/07/04 03:00:18;;;;;;;3.20;0.50;;;;;;;15.71;100.00;100340.50;5028628;28;20056;-51
2023/07/04 03:02:43;;;;;;;6.07;0.90;;;;;;;15.72;100.00;100346.66;5035913;28;20049;-47
2023/07/04 03:05:09;;;;;;;3.40;0.57;;;;;;;15.74;100.00;100347.25;5035977;28;20548;-52
2023/07/04 03:07:35;;;;;;;3.47;0.32;;;;;;;15.72;100.00;100346.66;5033103;28;20030;-47
2023/07/04 03:10:00;;;;;;;4.88;1.85;;;;;;;15.69;100.00;100345.25;5039180;28;20033;-47
2023/07/04 03:12:25;;;;;;;1.98;0.70;;;;;;;15.74;100.00;100336.56;5038492;28;20041;-52
2023/07/04 03:14:50;;;;;;;5.75;1.52;;;;;;;15.79;100.00;100350.06;5039586;28;20459;-48
2023/07/04 03:17:16;;;;;;;3.38;0.60;;;;;;;15.80;100.00;100351.66;5028696;28;20040;-48
2023/07/04 03:19:42;;;;;;;10.30;2.25;;;;;;;15.82;100.00;100339.72;5039613;28;20067;-47
2023/07/04 03:22:08;;;;;;;9.68;1.55;;;;;;;15.74;100.00;100337.38;5041471;28;20124;-51
2023/07/04 03:24:33;;;;;;;5.95;0.70;;;;;;;15.77;100.00;100347.59;5039856;28;20208;-50
2023/07/04 03:26:58;;;;;;;1.38;0.35;;;;;;;15.78;100.00;100345.75;5036419;28;20402;-49
2023/07/04 03:29:24;;;;;;;7.35;1.35;;;;;;;15.76;100.00;100340.63;5042247;28;20373;-49
2023/07/04 03:31:49;;;;;;;1.90;0.52;;;;;;;15.74;100.00;100337.38;5042812;28;20038;-47
2023/07/04 03:34:14;;;;;;;8.48;1.63;;;;;;;15.70;100.00;100337.03;5040494;28;20037;-50
2023/07/04 03:36:40;;;;;;;5.38;0.65;;;;;;;15.64;100.00;100337.91;5041602;28;20497;-49
2023/07/04 03:39:05;;;;;;;2.08;0.50;;;;;;;15.67;100.00;100337.44;5039745;28;20111;-49
2023/07/04 03:41:32;;;;;;;1.10;0.30;;;;;;;15.75;100.00;100341.69;5042709;28;20032;-51
2023/07/04 03:43:57;;;;;;;2.20;0.68;;;;;;;15.80;100.00;100333.81;5045183;28;20040;-47
2023/07/04 03:46:22;;;;;;;1.65;0.40;;;;;;;15.85;100.00;100338.44;5035181;28;20029;-47
2023/07/04 03:48:48;;;;;;;0.95;0.10;;;;;;;15.80;100.00;100340.97;5041123;28;20688;-47
2023/07/04 03:51:13;;;;;;;7.30;0.88;;;;;;;15.74;100.00;100340.03;5041468;28;20818;-49
2023/07/04 03:53:38;;;;;;;3.25;0.50;;;;;;;15.77;100.00;100334.22;5038386;28;20128;-49
2023/07/04 03:56:05;;;;;;;4.15;0.65;;;;;;;15.81;100.00;100338.09;5042883;28;20087;-50
2023/07/04 03:58:31;;;;;;;6.32;1.17;;;;;;;15.83;100.00;100336.00;5034709;28;20340;-50
2023/07/04 04:00:56;;;;;;;5.88;0.55;;;;;;;15.85;100.00;100336.59;5044043;28;20047;-48
2023/07/04 04:03:22;;;;;;;7.00;0.90;;;;;;;15.91;100.00;100340.22;5045662;28;20033;-48
2023/07/04 04:05:47;;;;;;;5.53;0.55;;;;;;;15.90;100.00;100339.41;5043253;28;20025;-49
2023/07/04 04:08:13;;;;;;;1.60;0.40;;;;;;;15.93;100.00;100338.13;5035073;28;20025;-47
2023/07/04 04:10:38;;;;;;;4.28;0.90;;;;;;;15.93;100.00;100340.81;5037215;28;20021;-50
2023/07/04 04:13:03;;;;;;;4.30;0.57;;;;;;;15.90;100.00;100350.09;5048877;28;20562;-48
2023/07/04 04:15:29;;;;;;;3.35;0.40;;;;;;;15.86;100.00;100346.25;5038059;28;20777;-49
2023/07/04 04:17:55;;;;;;;1.45;1.10;;;;;;;15.80;100.00;100340.97;5034897;28;20100;-52
2023/07/04 04:20:20;;;;;;;7.10;0.70;;;;;;;15.81;100.00;100340.75;5037104;28;20025;-53
2023/07/04 04:22:47;;;;;;;3.92;0.32;;;;;;;15.75;100.00;100347.03;5037384;28;20512;-48
2023/07/04 04:25:14;;;;;;;3.25;1.13;;;;;;;15.74;100.00;100357.94;5042005;28;20037;-49
2023/07/04 04:27:39;;;;;;;3.80;0.52;;;;;;;15.77;100.00;100366.31;5039657;28;20545;-48
2023/07/04 04:30:09;;;;;;;1.58;0.30;;;;;;;15.79;100.00;100364.22;5034487;28;20104;-52
2023/07/04 04:32:36;;;;;;;0.90;0.38;;;;;;;15.83;100.00;100360.06;5041124;28;20583;-54
2023/07/04 04:35:03;;;;;;;5.78;0.38;;;;;;;15.86;100.00;100359.59;5038284;28;20508;-52
2023/07/04 04:37:28;;;;;;;4.53;0.82;;;;;;;15.87;100.00;100369.25;5043277;28;20498;-53
2023/07/04 04:39:54;;;;;;;1.75;0.50;;;;;;;15.83;100.00;100357.41;5039909;28;20052;-50
2023/07/04 04:42:23;;;;;;;3.03;0.45;;;;;;;15.83;100.00;100356.59;5044925;28;20048;-48
2023/07/04 04:44:53;;;;;;;4.78;0.38;;;;;;;15.83;100.00;100367.28;5040671;28;20037;-50
2023/07/04 04:47:23;;;;;;;4.45;0.10;;;;;;;15.82;100.00;100360.28;5036866;28;20091;-51
2023/07/04 04:49:51;;;;;;;5.65;0.98;;;;;;;15.83;100.00;100352.06;5035250;28;20429;-51
2023/07/04 04:52:19;;;;;;;6.00;1.13;;;;;;;15.82;100.00;100360.28;5045061;28;20218;-53
2023/07/04 04:54:44;;;;;;;1.27;0.25;;;;;;;15.79;100.00;100366.91;5039429;28;20453;-51
2023/07/04 04:57:10;;;;;;;4.68;1.25;;;;;;;15.79;100.00;100356.22;5039804;28;20108;-48
2023/07/04 04:59:35;;;;;;;5.43;0.90;;;;;;;15.75;100.00;100359.56;5031481;28;20906;-50
2023/07/04 05:02:01;;;;;;;5.93;0.60;;;;;;;15.78;100.00;100365.28;5039958;28;20127;-51
2023/07/04 05:04:26;;;;;;;3.50;0.63;;;;;;;15.75;100.00;100365.75;5037697;28;20036;-50
2023/07/04 05:06:51;;;;;;;3.10;0.60;;;;;;;15.75;100.00;100357.72;5031451;28;20090;-55
2023/07/04 05:09:16;;;;;;;2.97;0.50;;;;;;;15.72;100.00;100360.03;5031826;28;20025;-51
2023/07/04 05:11:42;;;;;;;4.60;0.50;;;;;;;15.66;100.00;100362.53;5032336;28;20029;-49
2023/07/04 05:14:08;;;;;;;1.27;0.30;;;;;;;15.62;100.00;100371.25;5036882;28;20043;-48
2023/07/04 05:16:33;;;;;;;5.95;0.57;;;;;;;15.62;100.00;100360.56;5041213;28;20111;-50
2023/07/04 05:18:59;;;;;;;6.95;0.95;;;;;;;15.62;100.00;100350.69;5034897;28;20112;-46
2023/07/04 05:21:24;;;;;;;4.35;0.20;;;;;;;15.67;100.00;100332.09;5038777;28;20025;-46
2023/07/04 05:23:52;;;;;;;5.10;0.95;;;;;;;15.66;100.00;100330.47;5034095;28;20387;-46
2023/07/04 05:26:21;;;;;;;2.05;0.52;;;;;;;15.66;100.00;100335.00;5041934;28;20041;-48
2023/07/04 05:28:48;;;;;;;3.35;0.73;;;;;;;15.72;100.00;100350.16;5035108;28;20044;-49
2023/07/04 05:31:16;;;;;;;1.40;0.50;;;;;;;15.79;100.00;100336.69;5032324;28;20085;-49
2023/07/04 05:33:42;;;;;;;6.43;0.50;;;;;;;15.84;100.00;100334.16;5033546;28;20032;-50
2023/07/04 05:36:17;;;;;;;1.90;0.38;;;;;;;15.83;100.00;100343.22;5033128;28;20109;-48
2023/07/04 05:38:43;;;;;;;3.30;0.20;;;;;;;15.90;100.00;100341.25;5035754;28;20462;-49
2023/07/04 05:41:11;;;;;;;3.60;0.65;;;;;;;15.96;100.00;100350.22;5033652;28;20035;-52
2023/07/04 05:43:37;;;;;;;4.30;1.08;;;;;;;16.05;100.00;100343.47;5034737;28;20032;-49
2023/07/04 05:46:03;;;;;;;4.20;0.22;;;;;;;16.11;100.00;100337.22;5033707;28;20025;-48
2023/07/04 05:48:29;;;;;;;3.13;0.70;;;;;;;16.16;100.00;100339.19;5033757;28;20036;-49
2023/07/04 05:50:57;;;;;;;6.65;1.38;;;;;;;16.27;100.00;100327.69;5031412;28;20132;-50
2023/07/04 05:53:25;;;;;;;6.43;0.45;;;;;;;16.40;100.00;100319.44;5027944;28;20421;-51
2023/07/04 05:55:51;;;;;;;5.55;1.13;;;;;;;16.49;100.00;100322.56;5027094;28;20174;-49
2023/07/04 05:58:18;;;;;;;4.38;1.73;;;;;;;16.64;100.00;100328.25;5043387;28;20094;-45
2023/07/04 06:00:43;;;;;;;3.05;0.80;;;;;;;16.78;100.00;100332.34;5024683;28;20037;-53
2023/07/04 06:03:08;;;;;;;2.63;0.25;;;;;;;16.92;100.00;100332.09;5032036;28;20536;-50
2023/07/04 06:05:39;;;;;;;3.92;0.40;;;;;;;17.00;100.00;100337.06;5034097;28;20080;-51
2023/07/04 06:08:05;;;;;;;2.58;1.23;;;;;;;17.08;100.00;100336.69;5030069;28;20024;-51
2023/07/04 06:10:30;;;;;;;3.40;0.43;;;;;;;16.94;100.00;100340.72;5030035;28;20434;-54
2023/07/04 06:12:55;;;;;;;0.82;0.60;;;;;;;17.02;100.00;100340.34;5032890;28;20035;-49
2023/07/04 06:15:21;;;;;;;2.35;0.17;;;;;;;17.09;100.00;100341.03;5038416;28;20035;-50
2023/07/04 06:17:46;;;;;;;4.20;0.50;;;;;;;17.14;100.00;100341.13;5032695;28;20029;-50
2023/07/04 06:20:11;;;;;;;2.53;0.52;;;;;;;17.05;100.00;100341.72;5030263;28;20029;-51
2023/07/04 06:22:37;;;;;;;3.42;0.38;;;;;;;16.93;100.00;100334.50;5038286;28;20849;-51
2023/07/04 06:25:04;;;;;;;3.15;0.40;;;;;;;16.69;100.00;100339.06;5040054;28;20557;-53
2023/07/04 06:27:30;;;;;;;1.48;0.75;;;;;;;16.76;100.00;100349.66;5016433;28;20041;-48
2023/07/04 06:29:56;;;;;;;1.63;0.43;;;;;;;16.71;100.00;100357.59;5027555;28;20425;-51
2023/07/04 06:32:22;;;;;;;2.05;0.52;;;;;;;16.76;100.00;100360.38;5036785;28;20133;-51
2023/07/04 06:34:47;;;;;;;1.17;0.60;;;;;;;16.88;100.00;100374.59;5034392;28;20032;-52
2023/07/04 06:37:12;;;;;;;3.35;0.20;;;;;;;17.05;100.00;100380.03;5032684;28;20457;-52
2023/07/04 06:39:37;;;;;;;5.35;1.05;;;;;;;17.13;100.00;100373.50;5034479;28;20039;-48
2023/07/04 06:42:03;;;;;;;4.57;0.38;;;;;;;17.18;100.00;100365.56;5034417;28;20037;-47
2023/07/04 06:44:28;;;;;;;4.28;0.35;;;;;;;17.32;100.00;100361.56;5033202;28;20055;-49
2023/07/04 06:46:53;;;;;;;2.53;0.20;;;;;;;17.46;100.00;100358.59;5036282;28;20060;-48
2023/07/04 06:49:19;;;;;;;2.67;0.15;;;;;;;17.64;100.00;100363.75;5032337;28;20112;-50
2023/07/04 06:51:44;;;;;;;3.60;1.00;;;;;;;17.88;100.00;100370.66;5029293;28;20030;-49
2023/07/04 06:54:09;;;;;;;3.17;0.20;;;;;;;18.14;100.00;100371.06;5038425;28;20385;-52
2023/07/04 06:56:36;;;;;;;6.60;0.50;;;;;;;18.07;100.00;100376.63;5033782;28;20475;-48
2023/07/04 06:59:02;;;;;;;1.42;0.25;;;;;;;17.97;100.00;100371.09;5032584;28;20429;-49
2023/07/04 07:01:27;;;;;;;3.88;0.30;;;;;;;18.05;100.00;100375.25;5033148;28;20076;-49
2023/07/04 07:03:53;;;;;;;5.22;0.90;;;;;;;18.15;100.00;100378.09;5043292;28;20116;-48
2023/07/04 07:06:19;;;;;;;1.58;0.30;;;;;;;18.04;100.00;100371.75;5027650;28;20364;-52
2023/07/04 07:08:44;;;;;;;1.83;0.22;;;;;;;17.93;100.00;100377.16;5034565;28;20069;-49
2023/07/04 07:11:12;;;;;;;4.18;0.40;;;;;;;17.81;100.00;100377.22;5033792;28;20040;-52
2023/07/04 07:13:39;;;;;;;1.58;0.35;;;;;;;17.77;100.00;100370.69;5039076;28;20028;-52
2023/07/04 07:16:06;;;;;;;8.60;1.48;;;;;;;17.84;100.00;100390.16;5030225;28;20037;-49
2023/07/04 07:18:33;;;;;;;0.40;0.28;;;;;;;17.82;100.00;100390.41;5039408;28;20025;-50
2023/07/04 07:21:00;;;;;;;2.97;0.60;;;;;;;17.76;100.00;100385.13;5039938;28;20037;-50
2023/07/04 07:23:25;;;;;;;2.85;0.55;;;;;;;17.84;100.00;100380.25;5039803;28;20772;-48
2023/07/04 07:25:58;;;;;;;0.88;0.10;;;;;;;17.94;100.00;100382.31;5038126;28;20087;-48
2023/07/04 07:28:24;;;;;;;2.83;0.40;;;;;;;17.97;100.00;100373.78;5037769;28;20040;-49
2023/07/04 07:31:04;;;;;;;2.67;0.95;;;;;;;17.86;100.00;100388.88;5031614;28;20025;-50
2023/07/04 07:33:31;;;;;;;2.20;0.30;;;;;;;17.88;100.00;100394.78;5032080;28;20038;-50
2023/07/04 07:35:57;;;;;;;1.20;0.17;;;;;;;17.87;100.00;100387.00;5039226;28;20162;-48
2023/07/04 07:38:23;;;;;;;1.15;0.13;;;;;;;17.88;100.00;100391.28;5036873;28;20021;-48
2023/07/04 07:40:52;;;;;;;3.60;0.52;;;;;;;17.82;100.00;100386.91;5034889;28;20039;-49
2023/07/04 07:43:18;;;;;;;0.65;0.15;;;;;;;17.79;100.00;100376.63;5033007;28;20094;-51
2023/07/04 07:45:44;;;;;;;3.10;0.20;;;;;;;17.82;100.00;100373.50;5039503;28;20017;-48
2023/07/04 07:48:10;;;;;;;0.35;0.35;;;;;;;17.98;100.00;100377.25;5036984;28;20275;-49
2023/07/04 07:50:35;;;;;;;0.73;0.20;;;;;;;18.20;100.00;100380.84;5028942;28;20433;-47
2023/07/04 07:53:00;;;;;;;1.20;0.38;;;;;;;18.30;100.00;100377.50;5033311;28;20493;-60
2023/07/04 07:55:25;;;;;;;4.40;1.08;;;;;;;18.36;100.00;100379.22;5028850;28;20033;-49
2023/07/04 07:57:51;;;;;;;2.85;0.85;;;;;;;18.37;100.00;100372.78;5048287;28;20029;-46
2023/07/04 08:00:16;;;;;;;4.93;1.17;;;;;;;18.24;100.00;100379.28;5041728;28;20037;-52
2023/07/04 08:02:42;;;;;;;2.33;0.20;;;;;;;18.21;100.00;100378.97;5028289;28;20055;-53
2023/07/04 08:05:08;;;;;;;12.27;0.30;;;;;;;18.27;100.00;100375.31;5029557;28;20022;-51
2023/07/04 08:07:33;;;;;;;25.80;2.40;;;;;;;18.22;100.00;100377.91;5031712;28;20029;-50
2023/07/04 08:09:59;;;;;;;1.75;0.25;;;;;;;18.30;100.00;100369.44;5033179;28;20040;-46
2023/07/04 08:12:24;;;;;;;3.80;0.63;;;;;;;18.48;100.00;100376.44;5033677;28;20103;-50
2023/07/04 08:14:50;;;;;;;1.13;0.20;;;;;;;18.60;100.00;100382.53;5041179;28;20029;-52
2023/07/04 08:17:15;;;;;;;1.08;0.52;;;;;;;18.72;100.00;100379.75;5031697;28;20106;-49
2023/07/04 08:19:40;;;;;;;1.83;0.32;;;;;;;18.67;100.00;100383.16;5034075;28;20040;-52
2023/07/04 08:22:06;;;;;;;0.22;0.13;;;;;;;18.71;100.00;100378.09;5034910;28;20116;-53
2023/07/04 08:24:32;;;;;;;4.13;0.60;;;;;;;18.73;100.00;100374.13;5038058;28;20133;-50
2023/07/04 08:26:58;;;;;;;1.35;0.90;;;;;;;18.78;100.00;100373.41;5035446;28;20033;-50
2023/07/04 08:29:24;;;;;;;2.42;0.57;;;;;;;18.69;100.00;100375.69;5037335;28;20029;-48
2023/07/04 08:31:49;;;;;;;1.85;0.52;;;;;;;18.80;100.00;100375.88;5026970;28;20048;-50
2023/07/04 08:34:14;;;;;;;0.40;0.30;;;;;;;18.86;100.00;100366.81;5029225;28;20127;-50
2023/07/04 08:36:41;;;;;;;4.45;0.38;;;;;;;18.94;100.00;100367.16;5031880;28;20763;-50
2023/07/04 08:39:06;;;;;;;1.88;0.28;;;;;;;18.86;100.00;100362.22;5036800;28;20029;-47
2023/07/04 08:41:52;;;;;;;7.50;1.50;;;;;;;18.76;100.00;100372.84;5031568;28;20040;-47
2023/07/04 08:44:39;;;;;;;1.17;0.57;;;;;;;18.66;100.00;100378.03;5027210;28;20033;-51
2023/07/04 08:47:07;;;;;;;2.63;0.88;;;;;;;18.63;100.00;100386.59;5030060;28;20036;-46
2023/07/04 08:49:58;;;;;;;5.00;0.52;;;;;;;18.82;100.00;100382.63;5029516;28;20314;-47
2023/07/04 08:52:44;;;;;;;3.60;0.20;;;;;;;19.12;100.00;100376.00;5035811;28;20036;-52
2023/07/04 08:55:12;;;;;;;2.45;0.35;;;;;;;19.16;100.00;100372.56;5030834;28;20082;-49
2023/07/04 08:57:45;;;;;;;1.92;0.50;;;;;;;19.22;100.00;100372.63;5026601;28;20525;-52
2023/07/04 09:00:19;;;;;;;2.03;0.30;;;;;;;19.28;100.00;100374.31;5037862;28;20037;-49
2023/07/04 09:02:47;;;;;;;3.95;0.15;;;;;;;19.21;100.00;100382.56;5030165;28;20048;-50
2023/07/04 09:05:29;;;;;;;4.30;0.63;;;;;;;19.12;100.00;100378.69;5029605;28;20029;-53
2023/07/04 09:08:09;;;;;;;0.70;0.15;;;;;;;19.11;100.00;100385.94;5038602;28;20540;-54
2023/07/04 09:10:43;;;;;;;4.03;0.85;;;;;;;18.95;100.00;100389.50;5034934;28;20045;-55
2023/07/04 09:13:13;;;;;;;3.85;0.60;;;;;;;18.88;100.00;100389.66;5032131;28;20073;-56
2023/07/04 09:15:42;;;;;;;6.03;0.73;;;;;;;18.75;100.00;100392.72;5026567;28;20030;-52
2023/07/04 09:18:41;;;;;;;3.05;0.50;;;;;;;18.72;100.00;100393.19;5043717;28;20029;-48
2023/07/04 09:21:10;;;;;;;0.88;0.30;;;;;;;18.71;100.00;100392.34;5030254;28;20044;-48
2023/07/04 09:23:35;;;;;;;1.65;0.55;;;;;;;18.65;100.00;100405.97;5031445;28;20040;-49
2023/07/04 09:26:01;;;;;;;4.10;0.68;;;;;;;18.57;100.00;100411.75;5029526;28;20029;-60
2023/07/04 09:28:29;;;;;;;2.75;0.60;;;;;;;18.50;100.00;100407.34;5031516;28;20036;-49
2023/07/04 09:30:58;;;;;;;3.08;0.30;;;;;;;18.46;100.00;100419.66;5035917;28;20098;-54
2023/07/04 09:33:25;;;;;;;1.77;0.55;;;;;;;18.48;100.00;100422.91;5034232;28;20088;-47
2023/07/04 09:35:50;;;;;;;4.95;1.05;;;;;;;18.25;100.00;100431.94;5033845;28;20083;-50
2023/07/04 09:38:15;;;;;;;1.83;0.32;;;;;;;18.06;100.00;100438.56;5032387;28;20033;-50
2023/07/04 09:40:46;;;;;;;0.57;0.15;;;;;;;17.81;100.00;100444.25;5034549;28;20029;-52
2023/07/04 09:43:23;;;;;;;1.80;0.20;;;;;;;17.63;100.00;100450.59;5033850;28;20513;-50
2023/07/04 09:45:48;;;;;;;0.40;0.15;;;;;;;17.39;100.00;100434.56;5035280;28;20040;-51
2023/07/04 09:48:24;;;;;;;0.57;0.30;;;;;;;17.42;100.00;100433.28;5045556;28;20534;-50
2023/07/04 09:50:49;;;;;;;2.67;0.20;;;;;;;17.56;100.00;100426.63;5033210;28;20100;-56
2023/07/04 09:53:19;;;;;;;0.28;0.28;;;;;;;17.46;100.00;100431.78;5031404;28;20043;-56
2023/07/04 09:56:05;;;;;;;1.55;0.30;;;;;;;17.82;100.00;100432.50;5028412;28;20025;-58
2023/07/04 09:58:31;;;;;;;0.77;0.17;;;;;;;17.77;100.00;100430.50;5036909;28;20216;-51
2023/07/04 10:01:08;;;;;;;0.60;0.30;;;;;;;18.12;100.00;100429.53;5036201;28;20056;-52
2023/07/04 10:03:37;;;;;;;5.75;0.30;;;;;;;18.37;100.00;100423.78;5027848;28;20040;-59
2023/07/04 10:06:03;;;;;;;0.60;0.13;;;;;;;18.57;100.00;100412.56;5039306;28;20025;-54
2023/07/04 10:08:29;;;;;;;0.63;0.28;;;;;;;18.70;100.00;100412.22;5034574;28;20036;-55
2023/07/04 10:10:57;;;;;;;0.55;0.30;;;;;;;18.59;100.00;100409.63;5029081;28;20489;-53
2023/07/04 10:13:37;;;;;;;0.25;0.00;;;;;;;18.73;100.00;100405.53;5032518;28;20076;-54
2023/07/04 10:16:18;;;;;;;0.55;0.10;;;;;;;19.11;100.00;100409.31;5038890;28;20124;-53
2023/07/04 10:18:43;;;;;;;0.63;0.30;;;;;;;18.86;100.00;100413.28;5036736;28;20071;-55
2023/07/04 10:21:09;;;;;;;0.57;0.20;;;;;;;18.87;100.00;100403.34;5033810;28;20111;-57
2023/07/04 10:23:35;;;;;;;0.75;0.45;;;;;;;19.36;100.00;100398.03;5030792;28;20525;-49
2023/07/04 10:26:05;;;;;;;0.10;0.10;;;;;;;19.86;100.00;100399.69;5027488;28;20036;-48
2023/07/04 10:28:31;;;;;;;1.17;0.40;;;;;;;20.18;100.00;100390.81;5039692;28;20021;-49
2023/07/04 10:31:01;;;;;;;0.20;0.10;;;;;;;20.49;100.00;100392.66;5032864;28;20029;-49
2023/07/04 10:33:56;;;;;;;0.77;0.10;;;;;;;20.89;100.00;100385.94;5033661;28;20017;-49
2023/07/04 10:36:31;;;;;;;0.52;0.32;;;;;;;20.73;100.00;100373.47;5032192;28;20414;-56
2023/07/04 10:39:00;;;;;;;1.17;0.10;;;;;;;20.22;100.00;100373.91;5033419;28;20025;-57
2023/07/04 10:41:38;;;;;;;0.43;0.15;;;;;;;20.22;100.00;100368.53;5036696;28;20068;-55
2023/07/04 10:44:09;;;;;;;0.17;0.17;;;;;;;20.36;100.00;100351.91;5025472;28;20029;-52
2023/07/04 10:46:45;;;;;;;0.52;0.00;;;;;;;20.55;100.00;100358.56;5034602;28;20059;-55
2023/07/04 10:49:17;;;;;;;0.25;0.03;;;;;;;20.44;100.00;100354.13;5028438;28;20059;-56
2023/07/04 10:51:44;;;;;;;2.72;0.93;;;;;;;20.37;100.00;100357.06;5032896;28;20041;-60
2023/07/04 10:54:12;;;;;;;0.15;0.05;;;;;;;20.55;100.00;100349.63;5024860;28;20034;-56
2023/07/04 10:56:42;;;;;;;0.45;0.28;;;;;;;20.56;100.00;100346.69;5030509;28;20154;-56
2023/07/04 10:59:19;;;;;;;0.32;0.20;;;;;;;20.69;100.00;100340.84;5029347;28;20036;-60
2023/07/04 11:01:50;;;;;;;0.75;0.10;;;;;;;20.25;100.00;100341.09;5032365;28;20095;-58
2023/07/04 11:04:22;;;;;;;1.75;0.32;;;;;;;20.06;100.00;100331.81;5024776;28;20121;-54
2023/07/04 11:06:58;;;;;;;0.43;0.20;;;;;;;20.39;100.00;100335.25;5039213;28;20461;-58
2023/07/04 11:09:25;;;;;;;4.70;0.50;;;;;;;20.72;100.00;100344.09;5028339;28;20457;-57
2023/07/04 11:11:51;;;;;;;0.50;0.40;;;;;;;20.76;100.00;100329.03;5037502;28;20714;-58
2023/07/04 11:14:26;;;;;;;0.43;0.10;;;;;;;20.55;100.00;100339.69;5032828;28;20143;-57
2023/07/04 11:16:54;;;;;;;1.67;0.68;;;;;;;20.48;100.00;100339.09;5030713;28;20040;-58
2023/07/04 11:19:23;;;;;;;1.20;0.20;;;;;;;20.45;100.00;100331.53;5029968;28;20143;-62
2023/07/04 11:22:01;;;;;;;4.47;0.22;;;;;;;20.21;100.00;100328.38;5026122;28;20052;-52